Time;durP1;ratioP1;P1;durP2;ratioP2;P2;SDS_P1;SDS_P2;PMS_P1;PMS_P2;Temp;Humidity;BMP_temperature;BMP_pressure;BME280_temperature;BME280_humidity;BME280_pressure;Samples;Min_cycle;Max_cycle;Signal;HPM_P1;HPM_P2
2022/06/15 00:00:41;;;;;;;37.97;8.32;;;;;;;;;;5044109;28;20048;-61
2022/06/15 00:03:09;;;;;;;38.53;8.10;;;;;;;;;;5045655;28;20050;-61
2022/06/15 00:05:36;;;;;;;33.22;7.82;;;;;;;;;;5051784;28;20041;-59
2022/06/15 00:08:02;;;;;;;21.80;8.18;;;;;;;;;;5035552;28;20049;-60
2022/06/15 00:10:29;;;;;;;39.78;8.43;;;;;;;;;;5038541;28;20048;-59
2022/06/15 00:12:56;;;;;;;36.13;9.10;;;;;;;;;;5044265;28;20041;-59
2022/06/15 00:15:22;;;;;;;33.78;8.60;;;;;;;;;;5043896;28;20053;-59
2022/06/15 00:17:49;;;;;;;69.35;10.50;;;;;;;;;;5050442;28;20067;-59
2022/06/15 00:20:16;;;;;;;51.25;9.82;;;;;;;;;;5047620;28;20037;-59
2022/06/15 00:22:42;;;;;;;42.15;9.20;;;;;;;;;;5043646;28;20037;-59
2022/06/15 00:25:09;;;;;;;28.27;7.50;;;;;;;;;;5043798;28;20048;-59
2022/06/15 00:27:36;;;;;;;33.60;8.60;;;;;;;;;;5043439;28;20040;-60
2022/06/15 00:30:04;;;;;;;59.92;12.70;;;;;;;;;;5046782;28;20037;-60
2022/06/15 00:32:31;;;;;;;30.52;9.40;;;;;;;;;;5049977;28;20048;-60
2022/06/15 00:34:57;;;;;;;42.95;9.48;;;;;;;;;;5043314;28;20041;-60
2022/06/15 00:37:24;;;;;;;38.38;8.27;;;;;;;;;;5041448;28;20059;-60
2022/06/15 00:39:50;;;;;;;25.70;8.20;;;;;;;;;;5043165;28;20112;-60
2022/06/15 00:42:20;;;;;;;36.47;9.05;;;;;;;;;;5042087;28;20589;-60
2022/06/15 00:44:49;;;;;;;40.70;9.30;;;;;;;;;;5051212;28;20095;-60
2022/06/15 00:47:20;;;;;;;40.17;9.05;;;;;;;;;;5039262;28;20052;-60
2022/06/15 00:49:59;;;;;;;49.92;9.43;;;;;;;;;;5039577;28;20041;-60
2022/06/15 00:52:33;;;;;;;35.40;8.82;;;;;;;;;;5043428;28;20559;-61
2022/06/15 00:55:03;;;;;;;36.70;9.18;;;;;;;;;;5022784;28;20515;-58
2022/06/15 00:57:29;;;;;;;26.33;7.90;;;;;;;;;;5034752;28;20038;-60
2022/06/15 00:59:58;;;;;;;35.90;8.15;;;;;;;;;;5048468;28;20596;-60
2022/06/15 01:02:26;;;;;;;32.13;7.32;;;;;;;;;;5046600;28;20047;-59
2022/06/15 01:05:05;;;;;;;22.65;7.32;;;;;;;;;;5038399;28;20041;-60
2022/06/15 01:07:31;;;;;;;39.90;12.73;;;;;;;;;;5041426;28;20052;-58
2022/06/15 01:10:17;;;;;;;29.20;7.68;;;;;;;;;;5042880;28;20110;-58
2022/06/15 01:13:02;;;;;;;29.40;8.05;;;;;;;;;;5043100;28;20041;-57
2022/06/15 01:15:33;;;;;;;29.67;7.93;;;;;;;;;;5043238;28;20061;-60
2022/06/15 01:18:35;;;;;;;60.03;10.32;;;;;;;;;;5046751;28;20048;-59
2022/06/15 01:21:05;;;;;;;45.70;9.45;;;;;;;;;;5026510;28;20047;-59
2022/06/15 01:23:48;;;;;;;28.50;7.93;;;;;;;;;;5047685;28;20049;-59
2022/06/15 01:26:14;;;;;;;25.77;8.50;;;;;;;;;;5045592;28;20052;-59
2022/06/15 01:29:02;;;;;;;38.42;8.70;;;;;;;;;;5044255;28;20049;-59
2022/06/15 01:31:29;;;;;;;27.33;8.02;;;;;;;;;;5026928;28;20037;-59
2022/06/15 01:33:59;;;;;;;41.67;8.68;;;;;;;;;;5043711;28;20044;-59
2022/06/15 01:36:25;;;;;;;30.45;8.40;;;;;;;;;;5027582;28;20084;-59
2022/06/15 01:38:55;;;;;;;38.03;9.27;;;;;;;;;;5048098;28;20532;-60
2022/06/15 01:41:34;;;;;;;29.55;8.52;;;;;;;;;;5046528;28;20551;-60
2022/06/15 01:44:01;;;;;;;41.55;9.10;;;;;;;;;;5044367;28;20052;-59
2022/06/15 01:46:28;;;;;;;33.80;8.48;;;;;;;;;;5024946;28;20041;-59
2022/06/15 01:48:57;;;;;;;32.13;8.82;;;;;;;;;;5016797;28;20091;-58
2022/06/15 01:51:28;;;;;;;58.10;10.07;;;;;;;;;;5042068;28;20288;-59
2022/06/15 01:53:58;;;;;;;66.53;14.02;;;;;;;;;;5036404;28;20640;-61
2022/06/15 01:56:29;;;;;;;34.85;8.88;;;;;;;;;;5022893;28;20052;-60
2022/06/15 01:59:02;;;;;;;34.22;8.82;;;;;;;;;;5018468;28;20498;-61
2022/06/15 02:01:29;;;;;;;33.60;9.68;;;;;;;;;;5019346;28;20110;-62
2022/06/15 02:04:00;;;;;;;31.50;9.25;;;;;;;;;;5020246;28;20398;-61
2022/06/15 02:06:53;;;;;;;41.00;10.25;;;;;;;;;;5022496;28;20487;-61
2022/06/15 02:09:42;;;;;;;35.40;9.60;;;;;;;;;;5024496;28;20038;-64
2022/06/15 02:12:11;;;;;;;39.33;12.15;;;;;;;;;;5028424;28;20061;-63
2022/06/15 02:14:43;;;;;;;34.13;8.73;;;;;;;;;;5034081;28;20523;-61
2022/06/15 02:17:10;;;;;;;27.17;9.38;;;;;;;;;;5024747;28;20409;-61
2022/06/15 02:19:42;;;;;;;41.33;11.98;;;;;;;;;;5026009;28;20494;-60
2022/06/15 02:22:11;;;;;;;44.75;11.27;;;;;;;;;;5024759;28;20060;-60
2022/06/15 02:24:38;;;;;;;31.08;9.23;;;;;;;;;;5025070;28;20478;-60
2022/06/15 02:27:06;;;;;;;33.28;10.75;;;;;;;;;;5028098;28;20045;-60
2022/06/15 02:29:36;;;;;;;52.60;11.48;;;;;;;;;;5031434;28;20049;-61
2022/06/15 02:32:07;;;;;;;40.25;10.80;;;;;;;;;;5023653;28;20056;-61
2022/06/15 02:34:34;;;;;;;26.27;9.32;;;;;;;;;;5025704;28;20099;-62
2022/06/15 02:37:01;;;;;;;53.75;11.13;;;;;;;;;;5024728;28;20451;-61
2022/06/15 02:39:28;;;;;;;46.35;10.50;;;;;;;;;;5024728;28;20035;-61
2022/06/15 02:41:59;;;;;;;56.80;12.68;;;;;;;;;;5030691;28;20616;-60
2022/06/15 02:44:28;;;;;;;45.25;11.65;;;;;;;;;;5031753;28;20056;-60
2022/06/15 02:46:55;;;;;;;36.33;9.75;;;;;;;;;;5041918;28;20080;-59
2022/06/15 02:49:22;;;;;;;50.22;10.52;;;;;;;;;;5043392;28;20048;-59
2022/06/15 02:51:55;;;;;;;48.85;10.63;;;;;;;;;;5045404;28;20049;-60
2022/06/15 02:54:22;;;;;;;;;;;;;;;;;;5034693;28;20104;-60
2022/06/15 02:56:52;;;;;;;56.25;16.17;;;;;;;;;;5042571;28;19935;-61
2022/06/15 02:59:19;;;;;;;81.85;25.60;;;;;;;;;;5080234;28;20049;-62
2022/06/15 03:01:46;;;;;;;59.75;13.82;;;;;;;;;;5043650;28;20041;-62
2022/06/15 03:04:13;;;;;;;33.65;7.90;;;;;;;;;;5043299;28;20041;-62
2022/06/15 03:06:40;;;;;;;30.13;8.15;;;;;;;;;;5043961;28;20041;-60
2022/06/15 03:09:11;;;;;;;28.55;7.72;;;;;;;;;;5046053;28;20065;-61
2022/06/15 03:11:45;;;;;;;54.13;11.88;;;;;;;;;;5052616;28;20664;-60
2022/06/15 03:14:23;;;;;;;25.63;9.50;;;;;;;;;;5047627;28;20056;-61
2022/06/15 03:16:52;;;;;;;42.25;6.45;;;;;;;;;;5042771;28;20049;-60
2022/06/15 03:19:21;;;;;;;29.27;5.80;;;;;;;;;;5043446;28;20397;-60
2022/06/15 03:21:54;;;;;;;26.23;4.85;;;;;;;;;;5043776;28;20048;-60
2022/06/15 03:24:21;;;;;;;60.03;7.30;;;;;;;;;;5043374;28;20060;-60
2022/06/15 03:26:49;;;;;;;20.23;4.65;;;;;;;;;;5052079;28;20041;-60
2022/06/15 03:29:20;;;;;;;29.08;5.10;;;;;;;;;;5046087;28;20033;-59
2022/06/15 03:31:50;;;;;;;40.53;6.00;;;;;;;;;;5043007;28;20045;-59
2022/06/15 03:34:19;;;;;;;22.27;4.78;;;;;;;;;;5043279;28;20386;-58
2022/06/15 03:36:46;;;;;;;25.63;4.88;;;;;;;;;;5043405;28;20087;-58
2022/06/15 03:39:13;;;;;;;31.25;5.25;;;;;;;;;;5044884;28;20044;-58
2022/06/15 03:41:41;;;;;;;11.68;4.40;;;;;;;;;;5085286;28;20045;-57
2022/06/15 03:44:10;;;;;;;54.10;7.28;;;;;;;;;;5041329;28;20543;-57
2022/06/15 03:46:37;;;;;;;36.80;5.20;;;;;;;;;;5037995;28;20049;-58
2022/06/15 03:49:16;;;;;;;30.38;5.38;;;;;;;;;;5042906;28;20493;-57
2022/06/15 03:51:45;;;;;;;30.33;5.38;;;;;;;;;;5042562;28;20485;-59
2022/06/15 03:54:12;;;;;;;21.90;6.07;;;;;;;;;;5030331;28;20045;-60
2022/06/15 03:56:40;;;;;;;13.48;3.92;;;;;;;;;;5043682;28;20099;-61
2022/06/15 03:59:09;;;;;;;33.05;5.55;;;;;;;;;;5042419;28;20041;-60
2022/06/15 04:01:36;;;;;;;24.17;4.78;;;;;;;;;;5042716;28;20118;-61
2022/06/15 04:04:03;;;;;;;23.20;6.45;;;;;;;;;;5042228;28;20087;-58
2022/06/15 04:06:31;;;;;;;32.95;4.97;;;;;;;;;;5042937;28;20042;-58
2022/06/15 04:08:58;;;;;;;30.52;4.88;;;;;;;;;;5048488;28;20044;-58
2022/06/15 04:14:21;;;;;;;25.15;4.30;;;;;;;;;;5045113;28;20057;-59
2022/06/15 04:16:54;;;;;;;53.33;6.20;;;;;;;;;;5042454;28;20067;-59
2022/06/15 04:19:32;;;;;;;24.80;4.03;;;;;;;;;;5042341;28;20037;-59
2022/06/15 04:22:00;;;;;;;42.55;5.57;;;;;;;;;;5041799;28;20061;-57
2022/06/15 04:24:28;;;;;;;44.70;5.50;;;;;;;;;;5042328;28;20048;-59
2022/06/15 04:26:58;;;;;;;25.63;3.95;;;;;;;;;;5048358;28;20045;-59
2022/06/15 04:29:25;;;;;;;29.60;4.88;;;;;;;;;;5044974;28;20049;-58
2022/06/15 04:31:54;;;;;;;31.88;4.43;;;;;;;;;;5042089;28;20049;-58
2022/06/15 04:34:24;;;;;;;23.90;3.75;;;;;;;;;;5042234;28;20148;-59
2022/06/15 04:36:51;;;;;;;29.65;5.38;;;;;;;;;;5042009;28;20136;-58
2022/06/15 04:39:18;;;;;;;31.70;5.22;;;;;;;;;;5042570;28;20064;-58
2022/06/15 04:41:46;;;;;;;35.28;4.90;;;;;;;;;;5030332;28;20053;-59
2022/06/15 04:44:13;;;;;;;42.08;4.97;;;;;;;;;;5043329;28;20056;-59
2022/06/15 04:46:43;;;;;;;22.10;3.38;;;;;;;;;;5041904;28;20496;-58
2022/06/15 04:49:12;;;;;;;14.02;3.10;;;;;;;;;;5041969;28;20057;-57
2022/06/15 04:51:46;;;;;;;26.00;4.22;;;;;;;;;;5032181;28;20126;-59
2022/06/15 04:54:13;;;;;;;15.65;2.97;;;;;;;;;;5033485;28;20560;-58
2022/06/15 04:56:43;;;;;;;38.15;4.30;;;;;;;;;;5041902;28;20038;-58
2022/06/15 04:59:12;;;;;;;52.72;5.53;;;;;;;;;;5041511;28;20087;-59
2022/06/15 05:01:39;;;;;;;28.75;3.83;;;;;;;;;;5042984;28;20040;-58
2022/06/15 05:04:07;;;;;;;26.38;4.07;;;;;;;;;;5041354;28;20098;-60
2022/06/15 05:06:38;;;;;;;35.30;4.30;;;;;;;;;;5041677;28;20494;-60
2022/06/15 05:09:09;;;;;;;14.02;2.85;;;;;;;;;;5045337;28;20063;-59
2022/06/15 05:11:36;;;;;;;31.17;4.30;;;;;;;;;;5048350;28;20057;-59
2022/06/15 05:14:03;;;;;;;31.02;4.13;;;;;;;;;;5041182;28;20072;-59
2022/06/15 05:16:34;;;;;;;23.75;4.35;;;;;;;;;;5042568;28;20041;-59
2022/06/15 05:19:02;;;;;;;28.83;3.55;;;;;;;;;;5041210;28;20045;-59
2022/06/15 05:21:37;;;;;;;45.75;5.13;;;;;;;;;;5041256;28;20048;-60
2022/06/15 05:24:04;;;;;;;39.90;4.43;;;;;;;;;;5047350;28;20052;-59
2022/06/15 05:26:50;;;;;;;24.08;3.75;;;;;;;;;;5043435;28;20075;-59
2022/06/15 05:29:17;;;;;;;45.17;5.30;;;;;;;;;;5047365;28;20077;-59
2022/06/15 05:31:51;;;;;;;28.73;3.50;;;;;;;;;;5041394;28;20462;-60
2022/06/15 05:34:18;;;;;;;23.70;3.35;;;;;;;;;;5041145;28;20112;-59
2022/06/15 05:36:45;;;;;;;30.00;4.28;;;;;;;;;;5041331;28;20046;-59
2022/06/15 05:39:13;;;;;;;27.15;3.50;;;;;;;;;;5043807;28;20064;-59
2022/06/15 05:41:42;;;;;;;13.55;2.60;;;;;;;;;;5070524;28;20049;-59
2022/06/15 05:44:25;;;;;;;27.33;3.50;;;;;;;;;;5039830;28;20449;-59
2022/06/15 05:46:59;;;;;;;23.00;3.40;;;;;;;;;;5038700;28;20667;-60
2022/06/15 05:49:59;;;;;;;27.17;3.25;;;;;;;;;;5043518;28;20106;-59
2022/06/15 05:52:34;;;;;;;32.38;4.07;;;;;;;;;;5044128;28;20486;-59
2022/06/15 05:55:01;;;;;;;67.32;6.78;;;;;;;;;;5033691;28;20049;-59
2022/06/15 05:57:28;;;;;;;27.05;3.65;;;;;;;;;;5035701;28;20045;-59
2022/06/15 05:59:55;;;;;;;36.80;3.95;;;;;;;;;;5047538;28;20060;-59
2022/06/15 06:02:23;;;;;;;30.77;4.03;;;;;;;;;;5045534;28;20128;-59
2022/06/15 06:04:50;;;;;;;31.73;3.45;;;;;;;;;;5043860;28;20405;-60
2022/06/15 06:07:18;;;;;;;32.50;3.92;;;;;;;;;;5043778;28;20055;-59
2022/06/15 06:09:45;;;;;;;32.92;3.97;;;;;;;;;;5043865;28;20119;-59
2022/06/15 06:12:11;;;;;;;45.72;4.85;;;;;;;;;;5044878;28;20148;-60
2022/06/15 06:14:38;;;;;;;28.02;3.65;;;;;;;;;;5047980;28;20098;-59
2022/06/15 06:17:05;;;;;;;23.75;2.88;;;;;;;;;;5044182;28;20049;-59
2022/06/15 06:19:33;;;;;;;26.85;3.42;;;;;;;;;;5023006;28;20059;-59
2022/06/15 06:21:59;;;;;;;28.17;3.28;;;;;;;;;;5043750;28;20456;-59
2022/06/15 06:24:26;;;;;;;31.45;3.83;;;;;;;;;;5043824;28;20041;-59
2022/06/15 06:26:59;;;;;;;24.90;3.28;;;;;;;;;;5050174;28;20375;-59
2022/06/15 06:29:27;;;;;;;42.75;4.28;;;;;;;;;;5047486;28;20056;-60
2022/06/15 06:31:53;;;;;;;59.33;5.97;;;;;;;;;;5041982;28;20079;-59
2022/06/15 06:34:20;;;;;;;20.48;3.10;;;;;;;;;;5041970;28;20045;-59
2022/06/15 06:36:47;;;;;;;34.85;3.65;;;;;;;;;;5041926;28;20378;-59
2022/06/15 06:39:21;;;;;;;45.33;4.40;;;;;;;;;;5037318;28;20049;-59
2022/06/15 06:41:48;;;;;;;20.02;2.92;;;;;;;;;;5034912;28;20072;-59
2022/06/15 06:44:14;;;;;;;25.67;3.05;;;;;;;;;;5041660;28;20056;-59
2022/06/15 06:46:42;;;;;;;23.60;3.13;;;;;;;;;;5042054;28;20040;-59
2022/06/15 06:49:09;;;;;;;36.80;3.72;;;;;;;;;;5041834;28;20045;-60
2022/06/15 06:51:36;;;;;;;28.92;3.35;;;;;;;;;;5041915;28;20037;-59
2022/06/15 06:54:03;;;;;;;91.28;6.13;;;;;;;;;;5039873;28;20141;-59
2022/06/15 06:56:30;;;;;;;18.33;2.88;;;;;;;;;;5043834;28;20041;-59
2022/06/15 06:58:56;;;;;;;27.58;3.28;;;;;;;;;;5042708;28;20049;-60
2022/06/15 07:01:23;;;;;;;17.42;2.60;;;;;;;;;;5045484;28;20044;-60
2022/06/15 07:03:50;;;;;;;22.63;2.80;;;;;;;;;;5044980;28;20048;-60
2022/06/15 07:06:17;;;;;;;48.00;5.40;;;;;;;;;;5046579;28;20073;-60
2022/06/15 07:08:43;;;;;;;14.98;2.58;;;;;;;;;;5053461;28;20044;-60
2022/06/15 07:11:16;;;;;;;40.80;4.30;;;;;;;;;;5045192;28;20048;-59
2022/06/15 07:13:43;;;;;;;32.92;4.07;;;;;;;;;;5045276;28;20504;-59
2022/06/15 07:16:11;;;;;;;19.45;3.45;;;;;;;;;;5045166;28;20564;-60
2022/06/15 07:18:37;;;;;;;80.20;7.72;;;;;;;;;;5044862;28;20041;-60
2022/06/15 07:21:12;;;;;;;26.50;3.85;;;;;;;;;;5049978;28;20052;-59
2022/06/15 07:23:39;;;;;;;30.17;3.60;;;;;;;;;;5051728;28;20048;-59
2022/06/15 07:26:08;;;;;;;29.92;3.67;;;;;;;;;;5044551;28;20153;-60
2022/06/15 07:28:35;;;;;;;25.33;3.50;;;;;;;;;;5044938;28;20029;-59
2022/06/15 07:31:02;;;;;;;42.60;4.18;;;;;;;;;;5044743;28;20110;-60
2022/06/15 07:33:28;;;;;;;47.80;5.47;;;;;;;;;;5044877;28;20038;-60
2022/06/15 07:35:55;;;;;;;46.75;4.65;;;;;;;;;;5052111;28;20537;-59
2022/06/15 07:38:22;;;;;;;570.85;38.80;;;;;;;;;;5038912;28;20456;-60
2022/06/15 07:40:59;;;;;;;33.13;3.92;;;;;;;;;;5042102;28;20124;-60
2022/06/15 07:43:26;;;;;;;23.63;2.92;;;;;;;;;;5044508;28;20084;-59
2022/06/15 07:45:53;;;;;;;26.75;3.60;;;;;;;;;;5044524;28;20401;-60
2022/06/15 07:51:04;;;;;;;44.78;4.75;;;;;;;;;;5045130;28;20412;-59
2022/06/15 07:53:31;;;;;;;55.03;5.50;;;;;;;;;;5040543;28;20038;-59
2022/06/15 07:55:58;;;;;;;35.53;4.07;;;;;;;;;;5040037;28;20120;-60
2022/06/15 07:58:24;;;;;;;29.05;3.67;;;;;;;;;;5037248;28;20040;-59
2022/06/15 08:00:51;;;;;;;37.00;4.43;;;;;;;;;;5044386;28;20408;-61
2022/06/15 08:03:18;;;;;;;24.75;3.05;;;;;;;;;;5045271;28;20445;-60
2022/06/15 08:05:46;;;;;;;15.98;2.67;;;;;;;;;;5052241;28;20055;-60
2022/06/15 08:08:14;;;;;;;19.85;3.03;;;;;;;;;;5044111;28;20060;-59
2022/06/15 08:10:41;;;;;;;22.35;3.05;;;;;;;;;;5044067;28;20041;-59
2022/06/15 08:13:08;;;;;;;19.95;2.90;;;;;;;;;;5044194;28;20037;-59
2022/06/15 08:15:35;;;;;;;37.33;3.53;;;;;;;;;;5044355;28;20041;-60
2022/06/15 08:18:04;;;;;;;51.72;4.90;;;;;;;;;;5049021;28;20044;-58
2022/06/15 08:20:35;;;;;;;24.35;3.05;;;;;;;;;;5047982;28;20455;-59
2022/06/15 08:23:05;;;;;;;127.65;10.07;;;;;;;;;;5043907;28;20432;-58
2022/06/15 08:25:33;;;;;;;18.38;2.78;;;;;;;;;;5043867;28;20037;-59
2022/06/15 08:28:00;;;;;;;23.60;3.03;;;;;;;;;;5043468;28;20075;-59
2022/06/15 08:30:27;;;;;;;32.92;3.67;;;;;;;;;;5043848;28;22324;-59
2022/06/15 08:32:54;;;;;;;95.78;6.80;;;;;;;;;;5051652;28;20424;-58
2022/06/15 08:35:21;;;;;;;23.10;3.20;;;;;;;;;;5039346;28;20037;-59
2022/06/15 08:37:47;;;;;;;23.10;3.28;;;;;;;;;;5039349;28;20040;-59
2022/06/15 08:40:15;;;;;;;14.80;2.67;;;;;;;;;;5043608;28;20133;-59
2022/06/15 08:42:50;;;;;;;21.05;2.97;;;;;;;;;;5043758;28;20038;-60
2022/06/15 08:45:17;;;;;;;36.30;4.25;;;;;;;;;;5045089;28;20077;-60
2022/06/15 08:48:02;;;;;;;17.77;2.38;;;;;;;;;;5051096;28;20044;-59
2022/06/15 08:50:41;;;;;;;23.88;3.08;;;;;;;;;;5046637;28;20037;-60
2022/06/15 08:53:24;;;;;;;11.93;2.30;;;;;;;;;;5038658;28;20030;-60
2022/06/15 08:56:21;;;;;;;27.10;3.55;;;;;;;;;;5038509;28;20120;-60
2022/06/15 08:58:52;;;;;;;64.28;5.72;;;;;;;;;;5040271;28;20575;-60
2022/06/15 09:01:38;;;;;;;17.48;2.63;;;;;;;;;;5044947;28;20037;-60
2022/06/15 09:04:16;;;;;;;167.82;11.55;;;;;;;;;;5043816;28;20057;-59
2022/06/15 09:06:46;;;;;;;16.90;2.53;;;;;;;;;;5045241;28;20124;-60
2022/06/15 09:09:12;;;;;;;28.15;3.13;;;;;;;;;;5046075;28;20065;-60
2022/06/15 09:11:39;;;;;;;21.92;3.05;;;;;;;;;;5048403;28;20507;-60
2022/06/15 09:14:15;;;;;;;21.35;2.92;;;;;;;;;;5044456;28;20040;-61
2022/06/15 09:17:00;;;;;;;33.25;3.67;;;;;;;;;;5044239;28;20436;-61
2022/06/15 09:19:32;;;;;;;20.38;3.72;;;;;;;;;;5044295;28;20504;-60
2022/06/15 09:22:01;;;;;;;32.38;3.65;;;;;;;;;;5044518;28;20529;-59
2022/06/15 09:24:35;;;;;;;14.27;2.42;;;;;;;;;;5044553;28;20053;-59
2022/06/15 09:27:05;;;;;;;175.52;12.25;;;;;;;;;;5047626;28;20445;-60
2022/06/15 09:29:41;;;;;;;29.20;3.17;;;;;;;;;;5046767;28;20155;-59
2022/06/15 09:32:14;;;;;;;20.15;2.58;;;;;;;;;;5041688;28;20049;-59
2022/06/15 09:34:43;;;;;;;31.65;3.58;;;;;;;;;;5041653;28;20053;-58
2022/06/15 09:37:17;;;;;;;16.50;2.42;;;;;;;;;;5033341;28;20041;-58
2022/06/15 09:39:44;;;;;;;30.52;3.08;;;;;;;;;;5042778;28;20056;-59
2022/06/15 09:42:20;;;;;;;30.52;3.45;;;;;;;;;;5046052;28;20440;-58
2022/06/15 09:44:46;;;;;;;29.33;3.13;;;;;;;;;;5050937;28;20057;-59
2022/06/15 09:47:33;;;;;;;23.48;3.22;;;;;;;;;;5042305;28;20131;-59
2022/06/15 09:50:03;;;;;;;28.00;5.88;;;;;;;;;;5023795;28;20501;-59
2022/06/15 09:52:48;;;;;;;66.68;30.35;;;;;;;;;;5024183;28;20132;-58
2022/06/15 09:55:16;;;;;;;16.17;3.40;;;;;;;;;;5007448;28;20049;-59
2022/06/15 09:57:43;;;;;;;40.22;4.40;;;;;;;;;;5015276;28;20041;-60
2022/06/15 10:00:14;;;;;;;51.75;5.35;;;;;;;;;;5025596;28;20041;-59
2022/06/15 10:02:44;;;;;;;46.85;4.57;;;;;;;;;;5027849;28;20042;-60
2022/06/15 10:05:23;;;;;;;51.05;4.55;;;;;;;;;;5023687;28;20055;-60
2022/06/15 10:07:50;;;;;;;101.93;8.30;;;;;;;;;;5007589;28;20053;-60
2022/06/15 10:10:24;;;;;;;32.67;3.25;;;;;;;;;;5023777;28;20103;-60
2022/06/15 10:13:11;;;;;;;36.90;3.83;;;;;;;;;;5024173;28;20041;-60
2022/06/15 10:15:41;;;;;;;34.30;4.07;;;;;;;;;;5016885;28;20050;-59
2022/06/15 10:18:17;;;;;;;80.25;6.90;;;;;;;;;;5025934;28;20037;-59
2022/06/15 10:21:04;;;;;;;59.00;5.28;;;;;;;;;;5028134;28;20061;-59
2022/06/15 10:23:53;;;;;;;16.13;2.15;;;;;;;;;;5026539;28;20457;-59
2022/06/15 10:26:29;;;;;;;41.63;4.47;;;;;;;;;;4982246;28;20093;-59
2022/06/15 10:28:57;;;;;;;20.30;2.30;;;;;;;;;;5005312;28;20109;-59
2022/06/15 10:31:25;;;;;;;22.00;2.78;;;;;;;;;;5007685;28;20492;-59
2022/06/15 10:33:54;;;;;;;36.13;3.88;;;;;;;;;;5008014;28;20069;-59
2022/06/15 10:36:26;;;;;;;28.15;3.00;;;;;;;;;;5008607;28;20051;-58
2022/06/15 10:38:57;;;;;;;16.30;2.35;;;;;;;;;;5009009;28;20045;-59
2022/06/15 10:41:49;;;;;;;27.73;3.03;;;;;;;;;;5011467;28;20135;-59
2022/06/15 10:44:24;;;;;;;33.10;3.53;;;;;;;;;;5008136;28;20045;-59
2022/06/15 10:46:57;;;;;;;22.77;3.00;;;;;;;;;;5008032;28;20137;-60
2022/06/15 10:49:24;;;;;;;63.53;4.57;;;;;;;;;;5007705;28;20038;-58
2022/06/15 10:51:50;;;;;;;40.25;3.85;;;;;;;;;;5011646;28;20060;-58
2022/06/15 10:54:17;;;;;;;26.63;2.90;;;;;;;;;;5009276;28;20046;-58
2022/06/15 11:02:33;;;;;;;38.58;3.67;;;;;;;;;;5008572;28;20057;-58
2022/06/15 11:05:10;;;;;;;42.47;3.70;;;;;;;;;;5042740;28;20132;-58
2022/06/15 11:07:46;;;;;;;17.77;2.90;;;;;;;;;;5045244;28;20455;-59
2022/06/15 11:10:21;;;;;;;42.70;4.03;;;;;;;;;;5045133;28;20102;-60
2022/06/15 11:12:51;;;;;;;19.70;1.90;;;;;;;;;;5045335;28;20065;-59
2022/06/15 11:15:17;;;;;;;180.77;11.00;;;;;;;;;;5047335;28;20053;-59
2022/06/15 11:18:01;;;;;;;33.20;3.15;;;;;;;;;;5052327;28;20052;-59
2022/06/15 11:20:37;;;;;;;19.45;2.47;;;;;;;;;;5048071;28;20577;-60
2022/06/15 11:23:16;;;;;;;22.08;2.60;;;;;;;;;;5037029;28;20045;-59
2022/06/15 11:25:48;;;;;;;9.63;2.00;;;;;;;;;;5040068;28;20043;-59
2022/06/15 11:28:24;;;;;;;28.50;3.10;;;;;;;;;;5044547;28;20049;-59
2022/06/15 11:30:54;;;;;;;17.90;2.25;;;;;;;;;;5044844;28;20083;-59
2022/06/15 11:33:20;;;;;;;38.80;3.95;;;;;;;;;;5039412;28;20058;-59
2022/06/15 11:36:07;;;;;;;18.90;2.70;;;;;;;;;;5052665;28;20041;-60
2022/06/15 11:38:53;;;;;;;38.38;3.70;;;;;;;;;;5048607;28;20055;-59
2022/06/15 11:41:31;;;;;;;42.45;4.13;;;;;;;;;;5045248;28;20056;-58
2022/06/15 11:43:59;;;;;;;19.70;2.50;;;;;;;;;;5044301;28;20045;-59
2022/06/15 11:46:32;;;;;;;24.15;2.78;;;;;;;;;;5044547;28;20400;-60
2022/06/15 11:49:06;;;;;;;37.72;3.22;;;;;;;;;;5044156;28;20512;-60
2022/06/15 11:51:41;;;;;;;65.35;4.63;;;;;;;;;;5044760;28;20466;-60
2022/06/15 11:54:08;;;;;;;27.10;2.63;;;;;;;;;;5038060;28;20065;-60
2022/06/15 11:56:48;;;;;;;24.67;2.35;;;;;;;;;;5042106;28;20460;-60
2022/06/15 11:59:16;;;;;;;72.85;5.93;;;;;;;;;;5043630;28;20552;-60
2022/06/15 12:02:14;;;;;;;18.23;2.17;;;;;;;;;;5044206;28;20048;-59
2022/06/15 12:05:00;;;;;;;22.08;2.42;;;;;;;;;;5044235;28;20481;-59
2022/06/15 12:07:38;;;;;;;23.02;2.05;;;;;;;;;;5044070;28;20119;-60
2022/06/15 12:10:04;;;;;;;46.67;4.03;;;;;;;;;;5044166;28;20033;-59
2022/06/15 12:12:37;;;;;;;31.83;3.00;;;;;;;;;;5043788;28;20096;-60
2022/06/15 12:15:13;;;;;;;40.00;3.58;;;;;;;;;;5050839;28;20123;-59
2022/06/15 12:17:43;;;;;;;27.58;2.90;;;;;;;;;;5049767;28;20116;-60
2022/06/15 12:20:28;;;;;;;29.13;2.58;;;;;;;;;;5044316;28;20112;-59
2022/06/15 12:23:02;;;;;;;21.05;2.13;;;;;;;;;;5043747;28;20448;-59
2022/06/15 12:25:32;;;;;;;34.50;2.78;;;;;;;;;;5043809;28;20037;-59
2022/06/15 12:28:02;;;;;;;47.03;4.15;;;;;;;;;;5043657;28;20467;-60
2022/06/15 12:30:29;;;;;;;39.30;3.40;;;;;;;;;;5030555;28;20034;-59
2022/06/15 12:33:14;;;;;;;29.88;2.75;;;;;;;;;;5052585;28;20394;-59
2022/06/15 12:35:44;;;;;;;20.10;2.00;;;;;;;;;;5049714;28;20064;-60
2022/06/15 12:38:11;;;;;;;19.75;2.25;;;;;;;;;;5043731;28;20094;-60
2022/06/15 12:40:43;;;;;;;40.33;3.25;;;;;;;;;;5043291;28;20045;-60
2022/06/15 12:43:18;;;;;;;14.63;1.83;;;;;;;;;;5043494;28;20118;-60
2022/06/15 12:45:48;;;;;;;27.90;2.60;;;;;;;;;;5043597;28;20517;-59
2022/06/15 12:48:37;;;;;;;40.03;3.53;;;;;;;;;;5046192;28;20041;-60
2022/06/15 12:51:13;;;;;;;28.48;3.70;;;;;;;;;;5042077;28;20107;-60
2022/06/15 12:53:52;;;;;;;67.10;5.57;;;;;;;;;;5039275;28;20057;-60
2022/06/15 12:56:31;;;;;;;64.68;5.10;;;;;;;;;;5039662;28;20076;-58
2022/06/15 12:58:57;;;;;;;29.50;2.70;;;;;;;;;;5041919;28;20052;-59
2022/06/15 13:01:27;;;;;;;24.58;2.38;;;;;;;;;;5044894;28;20041;-58
2022/06/15 13:03:59;;;;;;;21.98;2.40;;;;;;;;;;5044308;28;20045;-60
2022/06/15 13:06:28;;;;;;;19.13;1.77;;;;;;;;;;5045199;28;20118;-58
2022/06/15 13:09:01;;;;;;;30.75;2.90;;;;;;;;;;5041739;28;20063;-59
2022/06/15 13:11:28;;;;;;;22.75;1.95;;;;;;;;;;5046216;28;20083;-59
2022/06/15 13:14:10;;;;;;;19.40;1.98;;;;;;;;;;5044547;28;20076;-59
2022/06/15 13:16:41;;;;;;;18.10;2.00;;;;;;;;;;5041649;28;20076;-59
2022/06/15 13:19:24;;;;;;;26.42;2.40;;;;;;;;;;5044148;28;20055;-59
2022/06/15 13:21:55;;;;;;;24.83;2.35;;;;;;;;;;5044476;28;20131;-59
2022/06/15 13:24:22;;;;;;;40.08;4.20;;;;;;;;;;5045151;28;20071;-59
2022/06/15 13:27:00;;;;;;;31.92;2.58;;;;;;;;;;5032378;28;20122;-59
2022/06/15 13:29:28;;;;;;;42.70;3.70;;;;;;;;;;5035817;28;20053;-59
2022/06/15 13:32:05;;;;;;;57.03;4.30;;;;;;;;;;5038979;28;20049;-60
2022/06/15 13:34:35;;;;;;;19.25;2.15;;;;;;;;;;5042467;28;20088;-59
2022/06/15 13:37:10;;;;;;;23.75;2.40;;;;;;;;;;5042589;28;20052;-59
2022/06/15 13:39:56;;;;;;;45.10;4.10;;;;;;;;;;5042526;28;20064;-60
2022/06/15 13:42:34;;;;;;;39.67;3.65;;;;;;;;;;5043871;28;20054;-59
2022/06/15 13:45:07;;;;;;;43.38;3.75;;;;;;;;;;5043130;28;20049;-59
2022/06/15 13:47:52;;;;;;;21.83;2.40;;;;;;;;;;5048332;28;20036;-60
2022/06/15 13:50:44;;;;;;;27.15;2.22;;;;;;;;;;5042228;28;20081;-59
2022/06/15 13:53:17;;;;;;;32.53;3.03;;;;;;;;;;5036073;28;20049;-59
2022/06/15 13:55:44;;;;;;;32.72;3.08;;;;;;;;;;5036884;28;20044;-59
2022/06/15 13:58:31;;;;;;;30.35;3.10;;;;;;;;;;5032489;28;20045;-59
2022/06/15 14:01:17;;;;;;;52.83;4.15;;;;;;;;;;5042873;28;20045;-59
2022/06/15 14:03:49;;;;;;;31.23;3.17;;;;;;;;;;5046328;28;20034;-59
2022/06/15 14:06:32;;;;;;;31.07;3.00;;;;;;;;;;5049852;28;25784;-59
2022/06/15 14:09:04;;;;;;;34.90;3.67;;;;;;;;;;5047106;28;20068;-59
2022/06/15 14:11:39;;;;;;;309.83;23.25;;;;;;;;;;5045707;28;20041;-60
2022/06/15 14:14:06;;;;;;;46.15;4.50;;;;;;;;;;5044164;28;20056;-60
2022/06/15 14:16:51;;;;;;;32.50;3.47;;;;;;;;;;5046641;28;20041;-59
2022/06/15 14:19:29;;;;;;;27.23;2.95;;;;;;;;;;5045778;28;20455;-59
2022/06/15 14:22:04;;;;;;;31.77;3.30;;;;;;;;;;5046062;28;20049;-60
2022/06/15 14:24:33;;;;;;;31.60;2.60;;;;;;;;;;5046078;28;20041;-59
2022/06/15 14:27:02;;;;;;;30.73;2.85;;;;;;;;;;5047109;28;20087;-59
2022/06/15 14:29:36;;;;;;;50.58;4.38;;;;;;;;;;5048194;28;20135;-59
2022/06/15 14:32:02;;;;;;;32.20;3.58;;;;;;;;;;5045540;28;20538;-59
2022/06/15 14:34:31;;;;;;;255.60;16.05;;;;;;;;;;5045375;28;20049;-58
2022/06/15 14:36:59;;;;;;;18.10;2.33;;;;;;;;;;5045991;28;20041;-59
2022/06/15 14:39:29;;;;;;;54.75;4.78;;;;;;;;;;5046234;28;20045;-59
2022/06/15 14:42:04;;;;;;;31.45;3.38;;;;;;;;;;5047101;28;20140;-59
2022/06/15 14:44:32;;;;;;;29.38;3.53;;;;;;;;;;5048336;28;20060;-59
2022/06/15 14:47:00;;;;;;;31.35;3.00;;;;;;;;;;5046035;28;20049;-59
2022/06/15 14:49:32;;;;;;;17.15;1.88;;;;;;;;;;5045157;28;20044;-59
2022/06/15 14:52:27;;;;;;;25.95;3.35;;;;;;;;;;5045215;28;20049;-60
2022/06/15 14:55:03;;;;;;;33.35;2.95;;;;;;;;;;5029154;28;20381;-59
2022/06/15 14:57:34;;;;;;;25.75;2.90;;;;;;;;;;5035647;28;20441;-59
2022/06/15 15:00:06;;;;;;;29.83;3.05;;;;;;;;;;5053714;28;20041;-59
2022/06/15 15:02:53;;;;;;;26.23;3.27;;;;;;;;;;5050783;28;20137;-59
2022/06/15 15:05:22;;;;;;;26.17;3.30;;;;;;;;;;5036357;28;20050;-60